createdAt,value
2022-11-02T00:10:43.553Z,19.83
2022-11-02T00:25:48.817Z,23.73
2022-11-02T00:40:50.659Z,30.38
2022-11-02T00:55:54.157Z,19.23
2022-11-02T01:10:56.013Z,16.63
2022-11-02T01:25:57.838Z,15.02
2022-11-02T01:41:00.386Z,19.08
2022-11-02T01:56:02.746Z,19.52
2022-11-02T02:11:42.702Z,15.10
2022-11-02T02:27:09.085Z,15.77
2022-11-02T02:42:35.960Z,17.85
2022-11-02T02:57:38.460Z,13.43
2022-11-02T03:12:56.350Z,17.48
2022-11-02T03:28:13.211Z,16.13
2022-11-02T03:43:17.165Z,18.10
2022-11-02T03:58:19.037Z,13.95
2022-11-02T04:13:39.217Z,14.00
2022-11-02T04:28:41.068Z,13.38
2022-11-02T04:43:43.278Z,13.20
2022-11-02T04:58:49.960Z,16.95
2022-11-02T05:13:51.799Z,14.35
2022-11-02T05:28:53.637Z,14.57
2022-11-02T05:43:55.471Z,13.98
2022-11-02T05:58:57.308Z,21.52
2022-11-02T06:13:59.159Z,18.17
2022-11-02T06:29:01.153Z,16.65
2022-11-02T06:44:03.012Z,14.68
2022-11-02T06:59:04.852Z,16.88
2022-11-02T07:14:06.830Z,17.92
2022-11-02T07:29:08.708Z,16.98
2022-11-02T07:44:10.634Z,18.65
2022-11-02T07:59:13.204Z,17.60
2022-11-02T08:14:15.057Z,13.73
2022-11-02T08:29:16.905Z,12.43
2022-11-02T08:44:20.189Z,10.07
2022-11-02T08:59:22.083Z,7.30
2022-11-02T09:14:24.122Z,7.15
2022-11-02T09:29:26.085Z,8.27
2022-11-02T09:44:54.460Z,4.93
2022-11-02T09:59:57.319Z,6.07
2022-11-02T10:15:05.731Z,5.38
2022-11-02T10:30:18.569Z,3.73
2022-11-02T10:45:45.043Z,5.68
2022-11-02T11:00:48.266Z,6.90
2022-11-02T11:15:54.451Z,5.13
2022-11-02T11:31:12.662Z,5.03
2022-11-02T11:46:15.737Z,6.03
2022-11-02T12:01:20.146Z,4.50
2022-11-02T12:16:30.930Z,4.88
2022-11-02T12:31:37.300Z,6.05
2022-11-02T12:46:42.281Z,4.55
2022-11-02T13:17:02.170Z,6.05
2022-11-02T13:32:15.814Z,6.28
2022-11-02T13:47:35.769Z,9.65
2022-11-02T14:02:43.490Z,8.70
2022-11-02T14:18:02.155Z,7.07
2022-11-02T14:33:14.735Z,5.28
2022-11-02T14:48:17.051Z,6.70
2022-11-02T15:03:25.214Z,6.18
2022-11-02T15:18:30.290Z,6.70
2022-11-02T15:33:48.479Z,8.65
2022-11-02T15:49:15.445Z,7.63
2022-11-02T16:04:21.540Z,7.10
2022-11-02T16:19:23.556Z,5.40
2022-11-02T16:34:32.054Z,6.60
2022-11-02T16:49:57.852Z,6.53
2022-11-02T17:05:04.836Z,5.68
2022-11-02T17:20:16.441Z,9.73
2022-11-02T17:35:21.876Z,8.80
2022-11-02T17:50:28.825Z,12.93
2022-11-02T18:05:37.313Z,11.90
2022-11-02T18:20:41.880Z,12.13
2022-11-02T18:35:44.342Z,10.00
2022-11-02T18:50:46.321Z,12.55
2022-11-02T19:06:06.853Z,9.27
2022-11-02T19:21:08.896Z,8.55
2022-11-02T19:36:10.794Z,11.77
2022-11-02T19:51:19.297Z,6.13
2022-11-02T20:06:36.566Z,8.68
2022-11-02T20:21:43.115Z,10.93
2022-11-02T20:36:45.689Z,12.00
2022-11-02T20:51:47.661Z,15.52
2022-11-02T21:06:50.425Z,10.30
2022-11-02T21:21:58.083Z,10.43
2022-11-02T21:52:08.669Z,10.95
2022-11-02T22:07:10.572Z,11.48
2022-11-02T22:22:12.477Z,12.45
2022-11-02T22:37:33.000Z,13.85
2022-11-02T22:52:34.835Z,11.15
2022-11-02T23:07:36.658Z,12.68
2022-11-02T23:22:38.492Z,11.52
2022-11-02T23:37:40.953Z,12.35
2022-11-02T23:53:01.267Z,9.80
